sensor_id;sensor_type;location;lat;lon;timestamp;P1;durP1;ratioP1;P2;durP2;ratioP2
58294;SDS011;45705;55.592;37.460;2022-11-20T00:01:10;12.43;;;6.50;;
58294;SDS011;45705;55.592;37.460;2022-11-20T00:03:38;13.50;;;7.68;;
58294;SDS011;45705;55.592;37.460;2022-11-20T00:06:05;16.00;;;9.15;;
58294;SDS011;45705;55.592;37.460;2022-11-20T00:08:33;15.40;;;8.23;;
58294;SDS011;45705;55.592;37.460;2022-11-20T00:11:09;16.10;;;8.82;;
58294;SDS011;45705;55.592;37.460;2022-11-20T00:13:36;15.88;;;9.50;;
58294;SDS011;45705;55.592;37.460;2022-11-20T00:16:03;17.27;;;9.50;;
58294;SDS011;45705;55.592;37.460;2022-11-20T00:18:30;13.55;;;7.80;;
58294;SDS011;45705;55.592;37.460;2022-11-20T00:21:02;13.82;;;6.32;;
58294;SDS011;45705;55.592;37.460;2022-11-20T00:23:29;16.60;;;8.88;;
58294;SDS011;45705;55.592;37.460;2022-11-20T00:25:55;15.18;;;8.95;;
58294;SDS011;45705;55.592;37.460;2022-11-20T00:28:21;16.20;;;7.68;;
58294;SDS011;45705;55.592;37.460;2022-11-20T00:30:47;13.90;;;8.07;;
58294;SDS011;45705;55.592;37.460;2022-11-20T00:33:13;14.18;;;7.90;;
58294;SDS011;45705;55.592;37.460;2022-11-20T00:35:39;17.48;;;9.40;;
58294;SDS011;45705;55.592;37.460;2022-11-20T00:38:04;13.43;;;7.47;;
58294;SDS011;45705;55.592;37.460;2022-11-20T00:40:30;17.85;;;9.25;;
58294;SDS011;45705;55.592;37.460;2022-11-20T00:42:56;17.05;;;8.07;;
58294;SDS011;45705;55.592;37.460;2022-11-20T00:45:22;14.45;;;9.00;;
58294;SDS011;45705;55.592;37.460;2022-11-20T00:47:47;17.33;;;10.10;;
58294;SDS011;45705;55.592;37.460;2022-11-20T00:50:13;14.52;;;8.02;;
58294;SDS011;45705;55.592;37.460;2022-11-20T00:52:39;18.33;;;9.15;;
58294;SDS011;45705;55.592;37.460;2022-11-20T00:55:05;15.38;;;8.70;;
58294;SDS011;45705;55.592;37.460;2022-11-20T00:57:31;15.57;;;8.10;;
58294;SDS011;45705;55.592;37.460;2022-11-20T00:59:57;13.95;;;7.07;;
58294;SDS011;45705;55.592;37.460;2022-11-20T01:02:23;14.73;;;7.68;;
58294;SDS011;45705;55.592;37.460;2022-11-20T01:04:49;14.45;;;8.40;;
58294;SDS011;45705;55.592;37.460;2022-11-20T01:07:14;15.95;;;8.68;;
58294;SDS011;45705;55.592;37.460;2022-11-20T01:09:40;12.40;;;7.32;;
58294;SDS011;45705;55.592;37.460;2022-11-20T01:12:06;13.77;;;7.65;;
58294;SDS011;45705;55.592;37.460;2022-11-20T01:14:32;11.77;;;6.05;;
58294;SDS011;45705;55.592;37.460;2022-11-20T01:16:58;18.55;;;9.57;;
58294;SDS011;45705;55.592;37.460;2022-11-20T01:19:24;11.75;;;7.22;;
58294;SDS011;45705;55.592;37.460;2022-11-20T01:21:50;18.45;;;9.57;;
58294;SDS011;45705;55.592;37.460;2022-11-20T01:24:18;15.47;;;9.23;;
58294;SDS011;45705;55.592;37.460;2022-11-20T01:26:47;17.58;;;9.55;;
58294;SDS011;45705;55.592;37.460;2022-11-20T01:29:16;14.77;;;7.50;;
58294;SDS011;45705;55.592;37.460;2022-11-20T01:31:44;15.25;;;9.27;;
58294;SDS011;45705;55.592;37.460;2022-11-20T01:34:11;15.88;;;8.57;;
58294;SDS011;45705;55.592;37.460;2022-11-20T01:36:38;17.48;;;9.52;;
58294;SDS011;45705;55.592;37.460;2022-11-20T01:39:06;16.40;;;9.07;;
58294;SDS011;45705;55.592;37.460;2022-11-20T01:41:36;14.80;;;8.52;;
58294;SDS011;45705;55.592;37.460;2022-11-20T01:44:21;19.65;;;10.45;;
58294;SDS011;45705;55.592;37.460;2022-11-20T01:47:07;19.90;;;11.07;;
58294;SDS011;45705;55.592;37.460;2022-11-20T01:49:37;20.55;;;11.50;;
58294;SDS011;45705;55.592;37.460;2022-11-20T01:54:53;16.38;;;8.70;;
58294;SDS011;45705;55.592;37.460;2022-11-20T01:57:24;21.88;;;10.07;;
58294;SDS011;45705;55.592;37.460;2022-11-20T01:59:54;13.52;;;7.07;;
58294;SDS011;45705;55.592;37.460;2022-11-20T02:02:25;18.77;;;9.85;;
58294;SDS011;45705;55.592;37.460;2022-11-20T02:04:51;17.95;;;10.18;;
58294;SDS011;45705;55.592;37.460;2022-11-20T02:07:22;15.23;;;8.63;;
58294;SDS011;45705;55.592;37.460;2022-11-20T02:09:49;17.73;;;9.95;;
58294;SDS011;45705;55.592;37.460;2022-11-20T02:12:16;20.00;;;10.50;;
58294;SDS011;45705;55.592;37.460;2022-11-20T02:15:20;19.90;;;10.30;;
58294;SDS011;45705;55.592;37.460;2022-11-20T02:17:46;14.07;;;7.95;;
58294;SDS011;45705;55.592;37.460;2022-11-20T02:20:12;18.63;;;10.05;;
58294;SDS011;45705;55.592;37.460;2022-11-20T02:22:40;17.70;;;8.65;;
58294;SDS011;45705;55.592;37.460;2022-11-20T02:25:32;17.90;;;9.70;;
58294;SDS011;45705;55.592;37.460;2022-11-20T02:28:00;15.10;;;8.63;;
58294;SDS011;45705;55.592;37.460;2022-11-20T02:30:27;12.15;;;6.35;;
58294;SDS011;45705;55.592;37.460;2022-11-20T02:32:53;16.63;;;8.15;;
58294;SDS011;45705;55.592;37.460;2022-11-20T02:37:46;12.98;;;6.78;;
58294;SDS011;45705;55.592;37.460;2022-11-20T02:40:15;15.25;;;9.00;;
58294;SDS011;45705;55.592;37.460;2022-11-20T02:42:41;15.88;;;8.43;;
58294;SDS011;45705;55.592;37.460;2022-11-20T02:45:07;17.88;;;8.15;;
58294;SDS011;45705;55.592;37.460;2022-11-20T02:47:33;13.52;;;7.50;;
58294;SDS011;45705;55.592;37.460;2022-11-20T02:49:59;13.65;;;7.85;;
58294;SDS011;45705;55.592;37.460;2022-11-20T02:52:25;12.25;;;6.40;;
58294;SDS011;45705;55.592;37.460;2022-11-20T02:54:51;14.57;;;9.52;;
58294;SDS011;45705;55.592;37.460;2022-11-20T02:57:17;13.00;;;6.75;;
58294;SDS011;45705;55.592;37.460;2022-11-20T02:59:43;15.27;;;8.32;;
58294;SDS011;45705;55.592;37.460;2022-11-20T03:02:09;14.38;;;7.50;;
58294;SDS011;45705;55.592;37.460;2022-11-20T03:04:35;13.80;;;7.50;;
58294;SDS011;45705;55.592;37.460;2022-11-20T03:07:01;15.95;;;8.60;;
58294;SDS011;45705;55.592;37.460;2022-11-20T03:09:28;12.45;;;7.40;;
58294;SDS011;45705;55.592;37.460;2022-11-20T03:11:53;17.17;;;8.55;;
58294;SDS011;45705;55.592;37.460;2022-11-20T03:14:19;12.20;;;7.28;;
58294;SDS011;45705;55.592;37.460;2022-11-20T03:16:45;16.48;;;9.02;;
58294;SDS011;45705;55.592;37.460;2022-11-20T03:19:11;17.13;;;8.80;;
58294;SDS011;45705;55.592;37.460;2022-11-20T03:21:37;16.33;;;9.25;;
58294;SDS011;45705;55.592;37.460;2022-11-20T03:24:03;17.15;;;9.07;;
58294;SDS011;45705;55.592;37.460;2022-11-20T03:26:30;16.60;;;9.48;;
58294;SDS011;45705;55.592;37.460;2022-11-20T03:28:56;14.98;;;8.18;;
58294;SDS011;45705;55.592;37.460;2022-11-20T03:31:28;14.95;;;8.85;;
58294;SDS011;45705;55.592;37.460;2022-11-20T03:33:56;14.77;;;8.35;;
58294;SDS011;45705;55.592;37.460;2022-11-20T03:36:23;16.52;;;8.93;;
58294;SDS011;45705;55.592;37.460;2022-11-20T03:38:49;15.52;;;8.25;;
58294;SDS011;45705;55.592;37.460;2022-11-20T03:41:19;13.48;;;8.18;;
58294;SDS011;45705;55.592;37.460;2022-11-20T03:43:47;21.27;;;9.85;;
58294;SDS011;45705;55.592;37.460;2022-11-20T03:46:18;11.30;;;6.30;;
58294;SDS011;45705;55.592;37.460;2022-11-20T03:48:44;17.60;;;8.07;;
58294;SDS011;45705;55.592;37.460;2022-11-20T03:51:19;17.85;;;9.27;;
58294;SDS011;45705;55.592;37.460;2022-11-20T03:53:50;18.02;;;8.88;;
58294;SDS011;45705;55.592;37.460;2022-11-20T03:56:18;15.50;;;9.38;;
58294;SDS011;45705;55.592;37.460;2022-11-20T03:58:47;17.63;;;9.50;;
58294;SDS011;45705;55.592;37.460;2022-11-20T04:01:14;17.35;;;9.23;;
58294;SDS011;45705;55.592;37.460;2022-11-20T04:06:10;17.23;;;7.60;;
58294;SDS011;45705;55.592;37.460;2022-11-20T04:08:38;22.17;;;9.95;;
58294;SDS011;45705;55.592;37.460;2022-11-20T04:11:24;20.20;;;10.23;;
58294;SDS011;45705;55.592;37.460;2022-11-20T04:13:52;21.80;;;9.77;;
58294;SDS011;45705;55.592;37.460;2022-11-20T04:16:21;18.15;;;8.82;;
58294;SDS011;45705;55.592;37.460;2022-11-20T04:18:50;20.50;;;9.82;;
58294;SDS011;45705;55.592;37.460;2022-11-20T04:21:18;20.83;;;9.18;;
58294;SDS011;45705;55.592;37.460;2022-11-20T04:23:43;19.27;;;9.27;;
58294;SDS011;45705;55.592;37.460;2022-11-20T04:26:10;17.23;;;9.25;;
58294;SDS011;45705;55.592;37.460;2022-11-20T04:28:37;16.67;;;9.18;;
58294;SDS011;45705;55.592;37.460;2022-11-20T04:31:10;17.55;;;8.75;;
58294;SDS011;45705;55.592;37.460;2022-11-20T04:33:38;18.70;;;9.77;;
58294;SDS011;45705;55.592;37.460;2022-11-20T04:36:06;20.30;;;8.77;;
58294;SDS011;45705;55.592;37.460;2022-11-20T04:38:37;17.13;;;8.63;;
58294;SDS011;45705;55.592;37.460;2022-11-20T04:41:04;20.52;;;10.18;;
58294;SDS011;45705;55.592;37.460;2022-11-20T04:43:31;13.50;;;7.35;;
58294;SDS011;45705;55.592;37.460;2022-11-20T04:45:58;18.40;;;9.40;;
58294;SDS011;45705;55.592;37.460;2022-11-20T04:48:24;17.77;;;9.20;;
58294;SDS011;45705;55.592;37.460;2022-11-20T04:50:51;19.70;;;9.38;;
58294;SDS011;45705;55.592;37.460;2022-11-20T04:53:18;19.73;;;10.30;;
58294;SDS011;45705;55.592;37.460;2022-11-20T04:55:44;14.93;;;8.68;;
58294;SDS011;45705;55.592;37.460;2022-11-20T04:58:10;16.88;;;9.18;;
58294;SDS011;45705;55.592;37.460;2022-11-20T05:00:36;19.90;;;8.68;;
58294;SDS011;45705;55.592;37.460;2022-11-20T05:03:02;14.80;;;9.07;;
58294;SDS011;45705;55.592;37.460;2022-11-20T05:05:28;14.88;;;8.90;;
58294;SDS011;45705;55.592;37.460;2022-11-20T05:07:57;20.10;;;9.52;;
58294;SDS011;45705;55.592;37.460;2022-11-20T05:10:27;15.48;;;8.57;;
58294;SDS011;45705;55.592;37.460;2022-11-20T05:15:18;16.92;;;8.52;;
58294;SDS011;45705;55.592;37.460;2022-11-20T05:17:48;20.80;;;10.05;;
58294;SDS011;45705;55.592;37.460;2022-11-20T05:20:14;23.00;;;10.02;;
58294;SDS011;45705;55.592;37.460;2022-11-20T05:22:40;19.30;;;9.98;;
58294;SDS011;45705;55.592;37.460;2022-11-20T05:25:06;18.38;;;8.48;;
58294;SDS011;45705;55.592;37.460;2022-11-20T05:27:32;18.80;;;10.07;;
58294;SDS011;45705;55.592;37.460;2022-11-20T05:29:58;18.50;;;10.13;;
58294;SDS011;45705;55.592;37.460;2022-11-20T05:32:24;18.55;;;9.63;;
58294;SDS011;45705;55.592;37.460;2022-11-20T05:34:51;16.75;;;7.97;;
58294;SDS011;45705;55.592;37.460;2022-11-20T05:37:17;18.52;;;9.38;;
58294;SDS011;45705;55.592;37.460;2022-11-20T05:39:43;19.00;;;9.95;;
58294;SDS011;45705;55.592;37.460;2022-11-20T05:42:09;19.30;;;9.93;;
58294;SDS011;45705;55.592;37.460;2022-11-20T05:44:53;18.83;;;8.98;;
58294;SDS011;45705;55.592;37.460;2022-11-20T05:47:19;18.42;;;10.38;;
58294;SDS011;45705;55.592;37.460;2022-11-20T05:49:45;20.70;;;9.85;;
58294;SDS011;45705;55.592;37.460;2022-11-20T05:52:10;19.17;;;10.35;;
58294;SDS011;45705;55.592;37.460;2022-11-20T05:54:36;21.20;;;10.57;;
58294;SDS011;45705;55.592;37.460;2022-11-20T05:57:02;22.17;;;10.93;;
58294;SDS011;45705;55.592;37.460;2022-11-20T05:59:28;21.60;;;10.95;;
58294;SDS011;45705;55.592;37.460;2022-11-20T06:01:54;24.75;;;10.55;;
58294;SDS011;45705;55.592;37.460;2022-11-20T06:04:20;18.67;;;10.00;;
58294;SDS011;45705;55.592;37.460;2022-11-20T06:06:45;19.65;;;10.23;;
58294;SDS011;45705;55.592;37.460;2022-11-20T06:09:11;21.63;;;11.18;;
58294;SDS011;45705;55.592;37.460;2022-11-20T06:11:37;23.58;;;11.20;;
58294;SDS011;45705;55.592;37.460;2022-11-20T06:14:03;20.83;;;10.00;;
58294;SDS011;45705;55.592;37.460;2022-11-20T06:16:29;19.35;;;9.60;;
58294;SDS011;45705;55.592;37.460;2022-11-20T06:18:54;23.70;;;12.00;;
58294;SDS011;45705;55.592;37.460;2022-11-20T06:21:21;19.00;;;10.77;;
58294;SDS011;45705;55.592;37.460;2022-11-20T06:23:49;20.75;;;10.90;;
58294;SDS011;45705;55.592;37.460;2022-11-20T06:26:17;18.95;;;10.45;;
58294;SDS011;45705;55.592;37.460;2022-11-20T06:28:45;23.52;;;11.35;;
58294;SDS011;45705;55.592;37.460;2022-11-20T06:31:12;26.40;;;10.73;;
58294;SDS011;45705;55.592;37.460;2022-11-20T06:33:39;19.73;;;10.73;;
58294;SDS011;45705;55.592;37.460;2022-11-20T06:36:06;25.52;;;10.98;;
58294;SDS011;45705;55.592;37.460;2022-11-20T06:38:32;25.45;;;11.23;;
58294;SDS011;45705;55.592;37.460;2022-11-20T06:40:58;20.50;;;11.25;;
58294;SDS011;45705;55.592;37.460;2022-11-20T06:43:24;24.10;;;11.00;;
58294;SDS011;45705;55.592;37.460;2022-11-20T06:45:53;22.05;;;10.20;;
58294;SDS011;45705;55.592;37.460;2022-11-20T06:48:20;22.48;;;10.10;;
58294;SDS011;45705;55.592;37.460;2022-11-20T06:50:46;22.20;;;11.10;;
58294;SDS011;45705;55.592;37.460;2022-11-20T06:53:11;22.13;;;11.55;;
58294;SDS011;45705;55.592;37.460;2022-11-20T06:55:41;26.38;;;12.50;;
58294;SDS011;45705;55.592;37.460;2022-11-20T06:58:08;24.85;;;12.13;;
58294;SDS011;45705;55.592;37.460;2022-11-20T07:00:33;31.73;;;12.70;;
58294;SDS011;45705;55.592;37.460;2022-11-20T07:03:02;26.40;;;11.48;;
58294;SDS011;45705;55.592;37.460;2022-11-20T07:05:32;22.25;;;10.63;;
58294;SDS011;45705;55.592;37.460;2022-11-20T07:07:57;30.02;;;13.23;;
58294;SDS011;45705;55.592;37.460;2022-11-20T07:10:24;25.30;;;13.48;;
58294;SDS011;45705;55.592;37.460;2022-11-20T07:12:50;28.90;;;14.00;;
58294;SDS011;45705;55.592;37.460;2022-11-20T07:15:19;24.35;;;12.35;;
58294;SDS011;45705;55.592;37.460;2022-11-20T07:17:46;26.52;;;13.10;;
58294;SDS011;45705;55.592;37.460;2022-11-20T07:20:12;28.98;;;12.40;;
58294;SDS011;45705;55.592;37.460;2022-11-20T07:22:39;33.00;;;13.88;;
58294;SDS011;45705;55.592;37.460;2022-11-20T07:25:05;25.55;;;12.55;;
58294;SDS011;45705;55.592;37.460;2022-11-20T07:27:31;26.65;;;13.07;;
58294;SDS011;45705;55.592;37.460;2022-11-20T07:29:57;27.65;;;13.50;;
58294;SDS011;45705;55.592;37.460;2022-11-20T07:32:23;24.27;;;12.63;;
58294;SDS011;45705;55.592;37.460;2022-11-20T07:34:49;24.40;;;13.57;;
58294;SDS011;45705;55.592;37.460;2022-11-20T07:37:15;27.77;;;14.15;;
58294;SDS011;45705;55.592;37.460;2022-11-20T07:39:41;25.58;;;13.70;;
58294;SDS011;45705;55.592;37.460;2022-11-20T07:42:07;30.63;;;13.82;;
58294;SDS011;45705;55.592;37.460;2022-11-20T07:44:36;28.77;;;13.95;;
58294;SDS011;45705;55.592;37.460;2022-11-20T07:47:01;26.77;;;13.18;;
58294;SDS011;45705;55.592;37.460;2022-11-20T07:49:27;32.03;;;16.35;;
58294;SDS011;45705;55.592;37.460;2022-11-20T07:51:53;28.02;;;14.45;;
58294;SDS011;45705;55.592;37.460;2022-11-20T07:54:19;31.02;;;14.65;;
58294;SDS011;45705;55.592;37.460;2022-11-20T07:56:46;31.88;;;15.43;;
58294;SDS011;45705;55.592;37.460;2022-11-20T07:59:12;30.83;;;14.93;;
58294;SDS011;45705;55.592;37.460;2022-11-20T08:01:41;30.58;;;14.93;;
58294;SDS011;45705;55.592;37.460;2022-11-20T08:04:08;29.73;;;15.32;;
58294;SDS011;45705;55.592;37.460;2022-11-20T08:06:34;32.13;;;14.75;;
58294;SDS011;45705;55.592;37.460;2022-11-20T08:09:00;32.45;;;14.45;;
58294;SDS011;45705;55.592;37.460;2022-11-20T08:11:26;30.45;;;13.88;;
58294;SDS011;45705;55.592;37.460;2022-11-20T08:14:11;35.15;;;15.57;;
58294;SDS011;45705;55.592;37.460;2022-11-20T08:16:41;30.35;;;14.98;;
58294;SDS011;45705;55.592;37.460;2022-11-20T08:19:12;29.48;;;15.82;;
58294;SDS011;45705;55.592;37.460;2022-11-20T08:21:39;31.45;;;14.93;;
58294;SDS011;45705;55.592;37.460;2022-11-20T08:24:05;35.55;;;15.18;;
58294;SDS011;45705;55.592;37.460;2022-11-20T08:26:31;29.88;;;13.35;;
58294;SDS011;45705;55.592;37.460;2022-11-20T08:28:57;30.23;;;15.90;;
58294;SDS011;45705;55.592;37.460;2022-11-20T08:31:24;32.78;;;16.70;;
58294;SDS011;45705;55.592;37.460;2022-11-20T08:33:52;33.25;;;15.80;;
58294;SDS011;45705;55.592;37.460;2022-11-20T08:36:18;30.45;;;16.33;;
58294;SDS011;45705;55.592;37.460;2022-11-20T08:38:48;34.88;;;15.90;;
58294;SDS011;45705;55.592;37.460;2022-11-20T08:41:15;37.45;;;17.95;;
58294;SDS011;45705;55.592;37.460;2022-11-20T08:43:57;33.78;;;16.05;;
58294;SDS011;45705;55.592;37.460;2022-11-20T08:46:25;35.95;;;16.90;;
58294;SDS011;45705;55.592;37.460;2022-11-20T08:48:52;36.53;;;17.57;;
58294;SDS011;45705;55.592;37.460;2022-11-20T08:51:19;34.67;;;16.65;;
58294;SDS011;45705;55.592;37.460;2022-11-20T08:53:45;40.13;;;16.85;;
58294;SDS011;45705;55.592;37.460;2022-11-20T08:56:13;40.97;;;16.70;;
58294;SDS011;45705;55.592;37.460;2022-11-20T08:58:39;41.63;;;18.98;;
58294;SDS011;45705;55.592;37.460;2022-11-20T09:01:05;36.40;;;16.23;;
58294;SDS011;45705;55.592;37.460;2022-11-20T09:03:31;39.80;;;18.73;;
58294;SDS011;45705;55.592;37.460;2022-11-20T09:05:57;39.97;;;16.85;;
58294;SDS011;45705;55.592;37.460;2022-11-20T09:08:25;41.05;;;17.98;;
58294;SDS011;45705;55.592;37.460;2022-11-20T09:10:51;39.53;;;16.15;;
58294;SDS011;45705;55.592;37.460;2022-11-20T09:13:18;44.97;;;17.60;;
58294;SDS011;45705;55.592;37.460;2022-11-20T09:15:44;40.25;;;16.58;;
58294;SDS011;45705;55.592;37.460;2022-11-20T09:18:10;46.80;;;18.40;;
58294;SDS011;45705;55.592;37.460;2022-11-20T09:20:35;41.20;;;19.27;;
58294;SDS011;45705;55.592;37.460;2022-11-20T09:23:02;42.08;;;19.13;;
58294;SDS011;45705;55.592;37.460;2022-11-20T09:25:27;39.20;;;17.75;;
58294;SDS011;45705;55.592;37.460;2022-11-20T09:27:57;41.45;;;18.30;;
58294;SDS011;45705;55.592;37.460;2022-11-20T09:30:24;45.33;;;20.38;;
58294;SDS011;45705;55.592;37.460;2022-11-20T09:32:50;38.92;;;17.35;;
58294;SDS011;45705;55.592;37.460;2022-11-20T09:35:16;39.92;;;17.35;;
58294;SDS011;45705;55.592;37.460;2022-11-20T09:37:43;43.08;;;19.02;;
58294;SDS011;45705;55.592;37.460;2022-11-20T09:40:17;39.85;;;17.65;;
58294;SDS011;45705;55.592;37.460;2022-11-20T09:42:49;44.50;;;17.92;;
58294;SDS011;45705;55.592;37.460;2022-11-20T09:50:32;41.67;;;18.90;;
58294;SDS011;45705;55.592;37.460;2022-11-20T09:55:47;49.70;;;19.80;;
58294;SDS011;45705;55.592;37.460;2022-11-20T09:58:25;41.72;;;19.08;;
58294;SDS011;45705;55.592;37.460;2022-11-20T10:01:00;39.80;;;18.23;;
58294;SDS011;45705;55.592;37.460;2022-11-20T10:03:41;40.38;;;18.17;;
58294;SDS011;45705;55.592;37.460;2022-11-20T10:06:16;45.15;;;19.40;;
58294;SDS011;45705;55.592;37.460;2022-11-20T10:11:48;36.20;;;17.25;;
58294;SDS011;45705;55.592;37.460;2022-11-20T10:29:18;36.33;;;17.73;;
58294;SDS011;45705;55.592;37.460;2022-11-20T10:31:54;34.95;;;16.42;;
58294;SDS011;45705;55.592;37.460;2022-11-20T10:34:35;27.75;;;15.02;;
58294;SDS011;45705;55.592;37.460;2022-11-20T10:37:19;33.28;;;15.23;;
58294;SDS011;45705;55.592;37.460;2022-11-20T10:45:22;33.80;;;14.98;;
58294;SDS011;45705;55.592;37.460;2022-11-20T10:50:32;27.40;;;12.95;;
58294;SDS011;45705;55.592;37.460;2022-11-20T10:55:55;22.15;;;11.65;;
58294;SDS011;45705;55.592;37.460;2022-11-20T11:01:20;20.73;;;11.55;;
58294;SDS011;45705;55.592;37.460;2022-11-20T11:03:52;23.00;;;11.88;;
58294;SDS011;45705;55.592;37.460;2022-11-20T11:09:19;17.08;;;10.68;;
58294;SDS011;45705;55.592;37.460;2022-11-20T11:11:53;21.80;;;11.05;;
58294;SDS011;45705;55.592;37.460;2022-11-20T11:14:19;19.42;;;11.63;;
58294;SDS011;45705;55.592;37.460;2022-11-20T11:16:49;20.80;;;12.02;;
58294;SDS011;45705;55.592;37.460;2022-11-20T11:19:16;21.90;;;12.30;;
58294;SDS011;45705;55.592;37.460;2022-11-20T11:21:52;24.40;;;12.75;;
58294;SDS011;45705;55.592;37.460;2022-11-20T11:24:24;21.65;;;12.68;;
58294;SDS011;45705;55.592;37.460;2022-11-20T11:26:52;20.42;;;11.35;;
58294;SDS011;45705;55.592;37.460;2022-11-20T11:29:21;20.23;;;11.45;;
58294;SDS011;45705;55.592;37.460;2022-11-20T11:31:47;23.33;;;12.50;;
58294;SDS011;45705;55.592;37.460;2022-11-20T11:34:13;20.80;;;11.73;;
58294;SDS011;45705;55.592;37.460;2022-11-20T11:36:41;21.52;;;12.07;;
58294;SDS011;45705;55.592;37.460;2022-11-20T11:39:15;24.30;;;12.45;;
58294;SDS011;45705;55.592;37.460;2022-11-20T11:41:43;20.58;;;12.30;;
58294;SDS011;45705;55.592;37.460;2022-11-20T11:44:15;21.92;;;11.38;;
58294;SDS011;45705;55.592;37.460;2022-11-20T11:47:03;24.75;;;12.15;;
58294;SDS011;45705;55.592;37.460;2022-11-20T11:49:31;24.48;;;12.60;;
58294;SDS011;45705;55.592;37.460;2022-11-20T11:52:02;21.83;;;11.88;;
58294;SDS011;45705;55.592;37.460;2022-11-20T11:54:49;28.48;;;13.40;;
58294;SDS011;45705;55.592;37.460;2022-11-20T12:00:06;24.20;;;12.50;;
58294;SDS011;45705;55.592;37.460;2022-11-20T12:08:31;22.88;;;13.20;;
58294;SDS011;45705;55.592;37.460;2022-11-20T12:13:50;26.05;;;12.90;;
58294;SDS011;45705;55.592;37.460;2022-11-20T12:16:23;26.48;;;14.15;;
58294;SDS011;45705;55.592;37.460;2022-11-20T12:18:51;22.60;;;13.82;;
58294;SDS011;45705;55.592;37.460;2022-11-20T12:40:44;28.08;;;14.50;;
58294;SDS011;45705;55.592;37.460;2022-11-20T12:48:42;26.60;;;13.73;;
58294;SDS011;45705;55.592;37.460;2022-11-20T12:56:50;29.20;;;14.13;;
58294;SDS011;45705;55.592;37.460;2022-11-20T12:59:23;32.38;;;15.85;;
58294;SDS011;45705;55.592;37.460;2022-11-20T13:02:05;27.58;;;14.77;;
58294;SDS011;45705;55.592;37.460;2022-11-20T13:07:12;31.45;;;15.80;;
58294;SDS011;45705;55.592;37.460;2022-11-20T13:09:42;27.55;;;14.48;;
58294;SDS011;45705;55.592;37.460;2022-11-20T13:15:01;29.13;;;13.75;;
58294;SDS011;45705;55.592;37.460;2022-11-20T13:17:46;27.65;;;14.25;;
58294;SDS011;45705;55.592;37.460;2022-11-20T13:20:17;29.13;;;14.63;;
58294;SDS011;45705;55.592;37.460;2022-11-20T13:22:45;27.55;;;14.65;;
58294;SDS011;45705;55.592;37.460;2022-11-20T13:25:25;23.67;;;13.48;;
58294;SDS011;45705;55.592;37.460;2022-11-20T13:27:58;28.70;;;13.45;;
58294;SDS011;45705;55.592;37.460;2022-11-20T13:30:26;27.08;;;14.60;;
58294;SDS011;45705;55.592;37.460;2022-11-20T13:32:56;30.55;;;15.50;;
58294;SDS011;45705;55.592;37.460;2022-11-20T13:35:30;28.83;;;15.00;;
58294;SDS011;45705;55.592;37.460;2022-11-20T13:38:05;29.88;;;15.10;;
58294;SDS011;45705;55.592;37.460;2022-11-20T13:43:54;28.92;;;14.88;;
58294;SDS011;45705;55.592;37.460;2022-11-20T13:46:13;32.05;;;15.07;;
58294;SDS011;45705;55.592;37.460;2022-11-20T13:48:41;32.25;;;15.77;;
58294;SDS011;45705;55.592;37.460;2022-11-20T13:53:54;26.27;;;14.10;;
58294;SDS011;45705;55.592;37.460;2022-11-20T14:02:11;25.42;;;14.05;;
58294;SDS011;45705;55.592;37.460;2022-11-20T14:04:42;24.67;;;13.88;;
58294;SDS011;45705;55.592;37.460;2022-11-20T14:07:10;25.95;;;14.13;;
58294;SDS011;45705;55.592;37.460;2022-11-20T14:09:36;27.75;;;14.00;;
58294;SDS011;45705;55.592;37.460;2022-11-20T14:12:03;26.42;;;14.15;;
58294;SDS011;45705;55.592;37.460;2022-11-20T14:14:30;25.10;;;13.68;;
58294;SDS011;45705;55.592;37.460;2022-11-20T14:17:07;22.10;;;12.50;;
58294;SDS011;45705;55.592;37.460;2022-11-20T14:19:42;26.27;;;13.65;;
58294;SDS011;45705;55.592;37.460;2022-11-20T14:22:21;24.17;;;13.55;;
58294;SDS011;45705;55.592;37.460;2022-11-20T14:24:48;27.98;;;15.38;;
58294;SDS011;45705;55.592;37.460;2022-11-20T14:27:28;27.63;;;14.70;;
58294;SDS011;45705;55.592;37.460;2022-11-20T14:29:54;28.48;;;14.38;;
58294;SDS011;45705;55.592;37.460;2022-11-20T14:32:21;30.08;;;14.70;;
58294;SDS011;45705;55.592;37.460;2022-11-20T14:34:50;26.23;;;14.43;;
58294;SDS011;45705;55.592;37.460;2022-11-20T14:37:20;31.15;;;15.57;;
58294;SDS011;45705;55.592;37.460;2022-11-20T14:39:49;26.60;;;14.82;;
58294;SDS011;45705;55.592;37.460;2022-11-20T14:42:18;26.65;;;13.88;;
58294;SDS011;45705;55.592;37.460;2022-11-20T14:44:44;33.28;;;14.40;;
58294;SDS011;45705;55.592;37.460;2022-11-20T14:47:12;27.42;;;14.38;;
58294;SDS011;45705;55.592;37.460;2022-11-20T14:49:40;29.80;;;15.25;;
58294;SDS011;45705;55.592;37.460;2022-11-20T14:52:11;26.75;;;14.15;;
58294;SDS011;45705;55.592;37.460;2022-11-20T14:54:46;26.77;;;13.98;;
58294;SDS011;45705;55.592;37.460;2022-11-20T14:59:50;28.05;;;14.60;;
58294;SDS011;45705;55.592;37.460;2022-11-20T15:02:17;26.42;;;14.75;;
58294;SDS011;45705;55.592;37.460;2022-11-20T15:04:58;30.35;;;14.75;;
58294;SDS011;45705;55.592;37.460;2022-11-20T15:07:30;26.45;;;13.90;;
58294;SDS011;45705;55.592;37.460;2022-11-20T15:10:06;24.95;;;14.57;;
58294;SDS011;45705;55.592;37.460;2022-11-20T15:12:35;25.10;;;13.68;;
58294;SDS011;45705;55.592;37.460;2022-11-20T15:15:04;30.05;;;15.38;;
58294;SDS011;45705;55.592;37.460;2022-11-20T15:17:31;27.88;;;15.27;;
58294;SDS011;45705;55.592;37.460;2022-11-20T15:20:08;26.23;;;14.38;;
58294;SDS011;45705;55.592;37.460;2022-11-20T15:22:38;28.08;;;14.88;;
58294;SDS011;45705;55.592;37.460;2022-11-20T15:25:11;24.98;;;14.60;;
58294;SDS011;45705;55.592;37.460;2022-11-20T15:27:38;28.15;;;14.52;;
58294;SDS011;45705;55.592;37.460;2022-11-20T15:30:11;30.02;;;15.57;;
58294;SDS011;45705;55.592;37.460;2022-11-20T15:32:42;25.60;;;14.85;;
58294;SDS011;45705;55.592;37.460;2022-11-20T15:35:09;28.45;;;15.45;;
58294;SDS011;45705;55.592;37.460;2022-11-20T15:37:35;27.83;;;14.77;;
58294;SDS011;45705;55.592;37.460;2022-11-20T15:40:02;26.00;;;13.90;;
58294;SDS011;45705;55.592;37.460;2022-11-20T15:42:28;24.02;;;14.60;;
58294;SDS011;45705;55.592;37.460;2022-11-20T15:44:54;27.08;;;14.45;;
58294;SDS011;45705;55.592;37.460;2022-11-20T15:47:20;27.50;;;14.95;;
58294;SDS011;45705;55.592;37.460;2022-11-20T15:49:52;25.63;;;12.95;;
58294;SDS011;45705;55.592;37.460;2022-11-20T15:52:18;26.55;;;14.25;;
58294;SDS011;45705;55.592;37.460;2022-11-20T15:54:44;30.80;;;15.25;;
58294;SDS011;45705;55.592;37.460;2022-11-20T15:57:10;24.52;;;12.93;;
58294;SDS011;45705;55.592;37.460;2022-11-20T15:59:35;25.23;;;14.43;;
58294;SDS011;45705;55.592;37.460;2022-11-20T16:02:08;24.52;;;14.20;;
58294;SDS011;45705;55.592;37.460;2022-11-20T16:04:37;25.95;;;13.27;;
58294;SDS011;45705;55.592;37.460;2022-11-20T16:07:03;28.25;;;13.55;;
58294;SDS011;45705;55.592;37.460;2022-11-20T16:09:29;23.48;;;12.38;;
58294;SDS011;45705;55.592;37.460;2022-11-20T16:11:55;24.50;;;13.10;;
58294;SDS011;45705;55.592;37.460;2022-11-20T16:14:23;23.83;;;13.55;;
58294;SDS011;45705;55.592;37.460;2022-11-20T16:17:07;22.33;;;13.60;;